Time;durP1;ratioP1;P1;durP2;ratioP2;P2;SDS_P1;SDS_P2;PMS_P1;PMS_P2;Temp;Humidity;BMP_temperature;BMP_pressure;BME280_temperature;BME280_humidity;BME280_pressure;Samples;Min_cycle;Max_cycle;Signal;HPM_P1;HPM_P2
2022/11/21 00:00:54;;;;;;;13.77;4.95;;;;;;;10.47;85.33;92689.22;5062798;28;20017;-83
2022/11/21 00:03:21;;;;;;;8.75;4.70;;;;;;;10.49;85.36;92665.69;5062770;28;20028;-83
2022/11/21 00:05:48;;;;;;;7.70;4.53;;;;;;;10.48;85.33;92648.91;5062728;28;20245;-83
2022/11/21 00:08:16;;;;;;;15.40;4.82;;;;;;;10.41;85.34;92672.72;5062184;28;20023;-85
2022/11/21 00:10:42;;;;;;;8.82;3.85;;;;;;;10.33;85.19;92649.66;5062789;28;20021;-86
2022/11/21 00:13:13;;;;;;;5.43;3.65;;;;;;;10.25;85.49;92657.44;5062673;28;20044;-86
2022/11/21 00:15:38;;;;;;;7.63;4.72;;;;;;;10.28;85.80;92639.22;5062520;28;20021;-86
2022/11/21 00:18:04;;;;;;;9.02;4.45;;;;;;;10.24;85.94;92615.94;5061794;28;20020;-86
2022/11/21 00:20:30;;;;;;;5.47;3.80;;;;;;;10.28;85.80;92625.91;5062758;28;20024;-85
2022/11/21 00:22:55;;;;;;;8.55;5.28;;;;;;;10.32;86.41;92640.13;5062588;28;20075;-85
2022/11/21 00:25:21;;;;;;;10.98;4.43;;;;;;;10.29;85.80;92622.16;5062501;28;20028;-85
2022/11/21 00:27:47;;;;;;;6.43;3.42;;;;;;;10.19;85.88;92615.41;5062527;28;20013;-87
2022/11/21 00:30:13;;;;;;;6.80;3.80;;;;;;;10.16;86.26;92624.09;5062478;28;20040;-86
2022/11/21 00:32:38;;;;;;;8.93;4.75;;;;;;;10.08;86.76;92601.84;5062442;28;20024;-85
2022/11/21 00:35:05;;;;;;;7.93;3.65;;;;;;;9.93;87.18;92623.84;5062590;28;20326;-85
2022/11/21 00:37:31;;;;;;;5.47;3.60;;;;;;;9.83;87.70;92603.81;5062670;28;20215;-86
2022/11/21 00:39:57;;;;;;;6.40;3.83;;;;;;;9.74;88.15;92600.53;5062968;28;20092;-86
2022/11/21 00:42:22;;;;;;;8.23;3.80;;;;;;;9.71;89.17;92609.16;5066183;28;20373;-85
2022/11/21 00:44:48;;;;;;;6.82;4.25;;;;;;;9.61;89.55;92624.50;5066214;28;20024;-85
2022/11/21 00:47:13;;;;;;;10.65;4.30;;;;;;;9.52;90.74;92634.47;5066289;28;20319;-86
2022/11/21 00:49:38;;;;;;;8.88;3.97;;;;;;;9.51;91.35;92600.25;5066297;28;20013;-86
2022/11/21 00:52:04;;;;;;;5.85;3.80;;;;;;;9.52;91.98;92589.25;5066373;28;20027;-87
2022/11/21 00:54:29;;;;;;;7.32;3.80;;;;;;;9.53;92.18;92577.53;5066253;28;20029;-86
2022/11/21 00:56:55;;;;;;;8.82;4.10;;;;;;;9.58;91.94;92592.47;5066130;28;20315;-86
2022/11/21 00:59:20;;;;;;;6.45;3.63;;;;;;;9.53;91.69;92598.81;5065756;28;20102;-86
2022/11/21 01:01:46;;;;;;;6.90;3.78;;;;;;;9.54;91.50;92588.94;5066143;28;20088;-86
2022/11/21 01:04:11;;;;;;;6.10;3.15;;;;;;;9.47;91.32;92572.78;5066086;28;20025;-86
2022/11/21 01:06:37;;;;;;;3.25;1.38;;;;;;;9.56;87.29;92581.41;5065876;28;20092;-86
2022/11/21 01:09:03;;;;;;;7.70;1.30;;;;;;;10.00;82.07;92562.81;5065607;28;20028;-85
2022/11/21 01:11:29;;;;;;;4.50;2.05;;;;;;;10.08;83.29;92569.88;5066023;28;20095;-86
2022/11/21 01:13:54;;;;;;;2.50;1.20;;;;;;;10.12;77.05;92581.41;5064688;28;20037;-86
2022/11/21 01:16:25;;;;;;;6.63;0.80;;;;;;;10.86;73.59;92580.94;5064262;28;20052;-86
2022/11/21 01:18:51;;;;;;;6.18;0.80;;;;;;;11.23;72.93;92572.63;5065639;28;20024;-86
2022/11/21 01:21:24;;;;;;;11.60;2.13;;;;;;;11.24;73.15;92558.19;5065648;28;20035;-86
2022/11/21 01:23:51;;;;;;;4.22;0.90;;;;;;;11.40;73.21;92569.59;5065583;28;20021;-86
2022/11/21 01:26:22;;;;;;;6.90;1.98;;;;;;;11.54;74.86;92539.75;5065508;28;20105;-86
2022/11/21 01:28:48;;;;;;;3.40;1.98;;;;;;;11.45;77.69;92587.19;5065516;28;20032;-86
2022/11/21 01:31:18;;;;;;;7.05;1.90;;;;;;;11.20;75.65;92541.34;5065209;28;20315;-87
2022/11/21 01:33:44;;;;;;;6.72;1.33;;;;;;;11.28;72.95;92543.03;5065561;28;20025;-86
2022/11/21 01:36:11;;;;;;;5.18;1.10;;;;;;;11.45;71.94;92539.94;5065352;28;20197;-86
2022/11/21 01:38:38;;;;;;;4.38;1.02;;;;;;;11.56;70.85;92531.38;5065316;28;20090;-86
2022/11/21 01:41:03;;;;;;;4.85;1.63;;;;;;;11.72;71.29;92576.69;5065200;28;20078;-86
2022/11/21 01:43:29;;;;;;;9.55;2.78;;;;;;;11.62;74.41;92541.44;5065337;28;20024;-86
2022/11/21 01:45:58;;;;;;;8.38;2.67;;;;;;;11.48;77.27;92545.69;5064153;28;20024;-84
2022/11/21 01:48:45;;;;;;;9.05;3.03;;;;;;;11.47;77.39;92536.16;5065029;28;20020;-86
2022/11/21 01:51:39;;;;;;;3.53;1.95;;;;;;;11.24;79.22;92563.53;5064856;28;20017;-85
2022/11/21 01:54:12;;;;;;;6.97;3.60;;;;;;;11.02;80.19;92552.38;5055233;28;20067;-85
2022/11/21 01:56:46;;;;;;;6.88;4.15;;;;;;;10.65;81.65;92562.56;5064980;28;20021;-85
2022/11/21 01:59:18;;;;;;;8.48;4.05;;;;;;;10.39;82.79;92563.84;5065084;28;20048;-88
2022/11/21 02:01:46;;;;;;;9.38;4.70;;;;;;;10.36;83.44;92555.75;5065306;28;20055;-88
2022/11/21 02:04:11;;;;;;;7.53;3.05;;;;;;;10.33;83.42;92525.25;5065285;28;20029;-86
2022/11/21 02:06:38;;;;;;;9.38;3.10;;;;;;;10.25;82.48;92558.91;5064744;28;20037;-86
2022/11/21 02:09:05;;;;;;;7.97;2.50;;;;;;;10.28;83.10;92572.66;5063827;28;20319;-86
2022/11/21 02:11:36;;;;;;;8.57;2.72;;;;;;;10.29;83.18;92580.31;5064903;28;20032;-87
2022/11/21 02:14:02;;;;;;;6.68;1.67;;;;;;;10.37;83.46;92582.06;5064892;28;20100;-87
2022/11/21 02:16:28;;;;;;;5.43;1.73;;;;;;;10.39;83.59;92547.88;5064863;28;20032;-87
2022/11/21 02:18:53;;;;;;;12.27;1.33;;;;;;;10.48;82.09;92517.63;5064789;28;20028;-87
2022/11/21 02:21:37;;;;;;;5.30;1.50;;;;;;;10.71;72.47;92539.09;5063629;28;20145;-86
2022/11/21 02:24:24;;;;;;;3.45;0.90;;;;;;;11.01;72.66;92545.50;5064470;28;20208;-83
2022/11/21 02:26:49;;;;;;;3.13;0.70;;;;;;;11.23;72.20;92559.28;5064129;28;20048;-83
2022/11/21 02:29:15;;;;;;;3.85;1.00;;;;;;;11.52;70.31;92546.56;5064349;28;20366;-84
2022/11/21 02:31:41;;;;;;;8.65;0.90;;;;;;;11.70;68.92;92525.56;5064254;28;20059;-84
2022/11/21 02:34:06;;;;;;;5.78;1.00;;;;;;;11.87;66.56;92519.03;5063057;28;20021;-84
2022/11/21 02:36:41;;;;;;;3.17;1.15;;;;;;;11.95;70.48;92563.47;5063944;28;20041;-84
2022/11/21 02:39:12;;;;;;;7.10;1.13;;;;;;;11.93;71.66;92539.00;5064085;28;20024;-84
2022/11/21 02:41:44;;;;;;;2.53;1.40;;;;;;;11.84;72.41;92573.88;5064194;28;20021;-84
2022/11/21 02:44:25;;;;;;;6.88;1.17;;;;;;;11.74;69.18;92532.50;5064056;28;20027;-84
2022/11/21 02:46:51;;;;;;;2.60;0.90;;;;;;;11.70;73.24;92539.66;5062749;28;20017;-83
2022/11/21 02:49:48;;;;;;;6.43;1.42;;;;;;;11.58;74.23;92529.13;5063720;28;20047;-83
2022/11/21 02:52:13;;;;;;;3.60;1.30;;;;;;;11.60;68.76;92513.53;5063944;28;20067;-83
2022/11/21 02:54:39;;;;;;;4.63;1.17;;;;;;;11.67;67.41;92499.59;5063708;28;20246;-83
2022/11/21 02:57:04;;;;;;;3.72;0.80;;;;;;;11.83;68.27;92489.59;5063911;28;20326;-83
2022/11/21 02:59:29;;;;;;;3.22;1.20;;;;;;;11.80;70.94;92499.06;5062592;28;20055;-83
2022/11/21 03:01:58;;;;;;;3.47;0.95;;;;;;;11.85;68.60;92490.78;5063611;28;20025;-83
2022/11/21 03:04:25;;;;;;;1.90;0.70;;;;;;;11.98;64.47;92482.63;5063382;28;20031;-83
2022/11/21 03:06:50;;;;;;;2.00;0.70;;;;;;;12.14;62.46;92467.28;5063533;28;20020;-83
2022/11/21 03:09:16;;;;;;;4.43;0.90;;;;;;;12.30;63.32;92471.72;5063694;28;20025;-84
2022/11/21 03:11:41;;;;;;;4.25;1.95;;;;;;;12.41;63.00;92515.41;5063360;28;20307;-84
2022/11/21 03:14:07;;;;;;;8.02;1.40;;;;;;;12.50;65.93;92523.22;5063590;28;20021;-83
2022/11/21 03:16:32;;;;;;;4.63;1.30;;;;;;;12.38;67.04;92500.09;5063527;28;20028;-84
2022/11/21 03:18:58;;;;;;;9.38;1.27;;;;;;;12.18;69.27;92502.06;5063466;28;20028;-83
2022/11/21 03:21:24;;;;;;;5.32;1.38;;;;;;;12.11;70.38;92491.25;5063212;28;20227;-83
2022/11/21 03:23:49;;;;;;;5.28;1.30;;;;;;;12.08;70.97;92514.09;5063333;28;20052;-83
2022/11/21 03:26:15;;;;;;;4.50;1.42;;;;;;;12.03;70.46;92496.47;5063322;28;20048;-83
2022/11/21 03:28:41;;;;;;;7.85;1.00;;;;;;;11.91;69.21;92501.22;5063192;28;20044;-83
2022/11/21 03:31:07;;;;;;;9.88;1.30;;;;;;;11.88;68.35;92502.63;5063102;28;20092;-84
2022/11/21 03:33:32;;;;;;;5.78;1.20;;;;;;;11.96;68.26;92503.56;5063052;28;20025;-84
2022/11/21 03:35:57;;;;;;;6.38;1.45;;;;;;;11.99;67.16;92510.91;5063170;28;20308;-85
2022/11/21 03:38:23;;;;;;;4.55;1.00;;;;;;;12.05;64.35;92504.13;5063009;28;20028;-84
2022/11/21 03:40:48;;;;;;;2.00;0.93;;;;;;;12.19;63.26;92493.69;5063094;28;20096;-85
2022/11/21 03:43:14;;;;;;;9.30;1.00;;;;;;;12.31;64.10;92489.28;5063106;28;20084;-84
2022/11/21 03:45:39;;;;;;;5.70;1.30;;;;;;;12.39;65.81;92501.63;5063073;28;20226;-85
2022/11/21 03:48:05;;;;;;;6.78;0.80;;;;;;;12.38;62.84;92484.06;5062809;28;20287;-85
2022/11/21 03:50:30;;;;;;;3.38;1.27;;;;;;;12.49;60.87;92482.31;5062065;28;20044;-84
2022/11/21 03:52:56;;;;;;;5.78;1.13;;;;;;;12.55;60.78;92450.72;5062854;28;20031;-84
2022/11/21 03:55:21;;;;;;;6.25;0.80;;;;;;;12.59;59.93;92457.66;5062689;28;20033;-84
2022/11/21 03:57:46;;;;;;;4.50;0.82;;;;;;;12.67;59.46;92431.81;5062592;28;20052;-83
2022/11/21 04:00:13;;;;;;;5.80;0.77;;;;;;;12.69;59.39;92456.28;5062492;28;20017;-84
2022/11/21 04:02:38;;;;;;;2.05;0.50;;;;;;;12.71;58.48;92421.94;5062590;28;20196;-83
2022/11/21 04:05:04;;;;;;;5.95;0.65;;;;;;;12.77;58.84;92433.09;5062490;28;20024;-83
2022/11/21 04:07:29;;;;;;;5.15;0.80;;;;;;;12.79;58.47;92422.81;5062871;28;20037;-83
2022/11/21 04:09:55;;;;;;;3.60;0.60;;;;;;;12.83;58.42;92396.91;5062438;28;20086;-83
2022/11/21 04:12:20;;;;;;;4.40;0.77;;;;;;;12.88;59.89;92409.94;5062573;28;20024;-83
2022/11/21 04:14:45;;;;;;;4.47;0.88;;;;;;;12.87;58.06;92396.94;5060728;28;20021;-83
2022/11/21 04:17:11;;;;;;;4.85;0.90;;;;;;;12.91;57.68;92384.41;5062310;28;20049;-84
2022/11/21 04:19:36;;;;;;;3.53;0.98;;;;;;;12.95;58.18;92372.59;5062577;28;20092;-83
2022/11/21 04:22:02;;;;;;;3.90;0.68;;;;;;;12.90;57.52;92407.69;5062431;28;20025;-82
2022/11/21 04:24:28;;;;;;;3.85;1.55;;;;;;;13.00;56.88;92385.66;5062331;28;20383;-82
2022/11/21 04:26:54;;;;;;;7.82;0.63;;;;;;;13.04;57.35;92405.19;5062433;28;20036;-81
2022/11/21 04:29:19;;;;;;;5.03;1.10;;;;;;;13.02;56.80;92386.06;5061206;28;20186;-81
2022/11/21 04:31:45;;;;;;;6.68;0.77;;;;;;;13.03;57.39;92398.31;5062261;28;20020;-81
2022/11/21 04:34:10;;;;;;;5.97;1.00;;;;;;;13.04;57.54;92378.44;5062206;28;20059;-83
2022/11/21 04:36:36;;;;;;;7.93;0.77;;;;;;;13.05;57.73;92396.03;5062338;28;20025;-82
2022/11/21 04:39:01;;;;;;;3.17;0.68;;;;;;;13.01;57.79;92408.59;5062412;28;20047;-83
2022/11/21 04:41:27;;;;;;;4.32;1.10;;;;;;;13.02;57.46;92402.09;5062392;28;20020;-82
2022/11/21 04:43:52;;;;;;;7.70;1.13;;;;;;;13.05;57.47;92390.69;5062242;28;20052;-83
2022/11/21 04:46:17;;;;;;;3.97;0.82;;;;;;;13.03;57.15;92381.50;5062225;28;20383;-83
2022/11/21 04:48:43;;;;;;;7.30;1.20;;;;;;;13.05;56.79;92411.31;5062046;28;20021;-85
2022/11/21 04:51:09;;;;;;;3.55;0.52;;;;;;;13.08;54.38;92418.59;5062136;28;20219;-83
2022/11/21 04:53:34;;;;;;;4.18;0.65;;;;;;;13.10;55.65;92427.03;5062400;28;20032;-83
2022/11/21 04:56:04;;;;;;;2.05;0.73;;;;;;;13.12;55.62;92450.75;5062227;28;20346;-83
2022/11/21 04:58:29;;;;;;;4.82;1.10;;;;;;;13.14;55.96;92464.53;5060952;28;20351;-83
2022/11/21 05:00:55;;;;;;;16.60;4.57;;;;;;;13.11;55.63;92455.34;5061935;28;20043;-83
2022/11/21 05:03:20;;;;;;;4.55;1.50;;;;;;;13.16;56.14;92467.63;5062056;28;20025;-83
2022/11/21 05:05:46;;;;;;;4.82;1.15;;;;;;;13.13;56.54;92484.41;5061939;28;20032;-84
2022/11/21 05:08:11;;;;;;;14.15;3.80;;;;;;;13.13;56.81;92492.44;5061788;28;20059;-83
2022/11/21 05:13:19;;;;;;;2.65;1.15;;;;;;;13.12;55.83;92483.63;5061748;28;20036;-84
2022/11/21 05:13:22;;;;;;;7.45;1.90;;;;;;;13.18;56.97;92486.75;5061689;28;20029;-84
2022/11/21 05:15:50;;;;;;;11.60;4.25;;;;;;;13.12;60.30;92504.25;5061359;28;20215;-84
2022/11/21 05:18:18;;;;;;;9.52;3.97;;;;;;;13.05;60.17;92529.78;5061688;28;20258;-84
2022/11/21 05:20:43;;;;;;;6.97;2.80;;;;;;;12.96;61.39;92545.28;5061611;28;20027;-84
2022/11/21 05:23:09;;;;;;;3.42;1.35;;;;;;;12.81;59.42;92506.13;5061754;28;20033;-83
2022/11/21 05:25:34;;;;;;;10.43;1.90;;;;;;;12.79;60.84;92521.75;5061607;28;20017;-84
2022/11/21 05:27:59;;;;;;;5.90;2.50;;;;;;;12.74;58.74;92495.31;5063865;28;20035;-84
2022/11/21 05:30:25;;;;;;;7.82;1.20;;;;;;;12.76;58.97;92509.06;5065081;28;20035;-84
2022/11/21 05:32:50;;;;;;;2.95;1.10;;;;;;;12.73;61.05;92510.56;5065259;28;20215;-82
2022/11/21 05:35:16;;;;;;;7.45;1.58;;;;;;;12.68;61.27;92488.72;5064117;28;20040;-83
2022/11/21 05:37:41;;;;;;;6.65;1.17;;;;;;;12.62;58.90;92513.09;5065193;28;20017;-84
2022/11/21 05:40:07;;;;;;;2.90;0.93;;;;;;;12.56;60.96;92535.91;5065163;28;20088;-84
2022/11/21 05:45:16;;;;;;;4.00;1.48;;;;;;;12.23;65.66;92549.84;5065197;28;20025;-84
2022/11/21 05:47:42;;;;;;;4.75;1.80;;;;;;;12.18;65.59;92556.25;5063750;28;20285;-84
2022/11/21 05:50:08;;;;;;;5.75;1.60;;;;;;;12.10;64.04;92567.16;5065027;28;20350;-84
2022/11/21 05:52:33;;;;;;;4.45;1.40;;;;;;;12.09;65.32;92557.59;5064978;28;20020;-84
2022/11/21 05:54:59;;;;;;;6.13;1.25;;;;;;;12.00;62.44;92597.88;5065024;28;20067;-84
2022/11/21 05:57:24;;;;;;;7.35;1.35;;;;;;;12.01;63.31;92573.50;5064283;28;20021;-83
2022/11/21 05:59:50;;;;;;;4.90;1.10;;;;;;;11.72;64.80;92593.47;5064895;28;20370;-84
2022/11/21 06:04:59;;;;;;;6.30;1.40;;;;;;;11.49;65.53;92624.63;5064775;28;20023;-83
2022/11/21 06:07:24;;;;;;;4.03;1.05;;;;;;;11.38;65.96;92648.44;5064666;28;20053;-84
2022/11/21 06:09:50;;;;;;;1.35;1.02;;;;;;;10.92;65.63;92638.22;5064584;28;20041;-85
2022/11/21 06:12:15;;;;;;;1.05;0.60;;;;;;;10.61;65.78;92645.06;5064497;28;20025;-85
2022/11/21 06:14:41;;;;;;;3.33;0.90;;;;;;;10.47;67.13;92659.94;5064360;28;20096;-84
2022/11/21 06:17:06;;;;;;;3.60;1.10;;;;;;;10.15;67.55;92660.59;5064333;28;20280;-84
2022/11/21 06:19:31;;;;;;;8.25;2.63;;;;;;;9.85;68.20;92662.81;5064522;28;20059;-84
2022/11/21 06:21:57;;;;;;;5.53;1.45;;;;;;;9.58;69.65;92654.41;5064346;28;20024;-83
2022/11/21 06:24:23;;;;;;;2.97;0.98;;;;;;;9.36;70.30;92663.69;5064299;28;20013;-83
2022/11/21 06:26:48;;;;;;;4.57;1.10;;;;;;;9.10;70.99;92681.81;5064262;28;20021;-82
2022/11/21 06:29:15;;;;;;;1.23;0.70;;;;;;;8.83;71.69;92692.00;5064382;28;20020;-82
2022/11/21 06:31:41;;;;;;;1.85;0.85;;;;;;;8.64;72.16;92692.50;5064024;28;20227;-84
2022/11/21 06:34:06;;;;;;;1.65;0.80;;;;;;;8.46;73.33;92702.53;5064235;28;20047;-85
2022/11/21 06:36:32;;;;;;;3.63;0.80;;;;;;;8.40;73.67;92719.75;5062774;28;20025;-84
2022/11/21 06:38:57;;;;;;;1.67;0.82;;;;;;;8.26;73.70;92716.59;5063682;28;20029;-84
2022/11/21 06:41:24;;;;;;;3.83;1.33;;;;;;;8.19;74.59;92703.84;5064097;28;20029;-84
2022/11/21 06:43:50;;;;;;;4.70;1.00;;;;;;;8.05;75.74;92714.75;5064066;28;20118;-84
2022/11/21 06:46:16;;;;;;;7.95;1.35;;;;;;;7.97;77.11;92718.22;5063900;28;20024;-84
2022/11/21 06:48:42;;;;;;;7.63;1.10;;;;;;;7.93;77.43;92726.06;5063831;28;20021;-82
2022/11/21 06:51:15;;;;;;;4.03;1.00;;;;;;;7.81;76.87;92742.69;5063889;28;20311;-82
2022/11/21 06:53:40;;;;;;;1.88;0.85;;;;;;;7.56;76.93;92751.59;5063755;28;20311;-81
2022/11/21 06:56:06;;;;;;;1.67;0.90;;;;;;;7.10;78.53;92763.78;5063865;28;20024;-83
2022/11/21 06:58:31;;;;;;;1.83;1.08;;;;;;;6.78;80.16;92784.47;5063828;28;20060;-84
2022/11/21 07:00:57;;;;;;;1.40;0.85;;;;;;;6.53;80.71;92791.34;5064087;28;20028;-83
2022/11/21 07:03:23;;;;;;;1.58;0.80;;;;;;;6.27;81.52;92810.69;5063517;28;20315;-83
2022/11/21 07:05:49;;;;;;;3.80;0.80;;;;;;;6.05;81.37;92824.81;5063719;28;20212;-83
2022/11/21 07:08:15;;;;;;;1.02;0.50;;;;;;;5.73;82.80;92810.88;5063441;28;20028;-81
2022/11/21 07:10:40;;;;;;;1.75;0.65;;;;;;;5.56;83.97;92826.72;5063539;28;20032;-80
2022/11/21 07:13:21;;;;;;;1.88;1.08;;;;;;;5.45;84.87;92810.31;5063567;28;20083;-82
2022/11/21 07:15:49;;;;;;;2.83;1.10;;;;;;;5.29;86.05;92817.91;5063492;28;20017;-82
2022/11/21 07:18:15;;;;;;;1.63;0.80;;;;;;;5.19;86.57;92826.06;5063325;28;20219;-86
2022/11/21 07:20:40;;;;;;;4.35;1.17;;;;;;;5.19;87.36;92829.50;5062174;28;20027;-87
2022/11/21 07:23:07;;;;;;;2.65;1.20;;;;;;;5.10;87.65;92836.59;5063358;28;20017;-85
2022/11/21 07:25:32;;;;;;;3.28;1.70;;;;;;;5.08;88.17;92840.66;5063360;28;20336;-85
2022/11/21 07:27:59;;;;;;;3.00;1.60;;;;;;;4.99;88.78;92859.88;5063539;28;20036;-84
2022/11/21 07:30:25;;;;;;;2.45;1.02;;;;;;;5.01;89.28;92872.78;5063401;28;20032;-83
2022/11/21 07:33:02;;;;;;;1.48;1.02;;;;;;;5.01;89.45;92860.34;5063342;28;20037;-83
2022/11/21 07:35:28;;;;;;;6.68;1.67;;;;;;;4.97;88.84;92875.22;5063333;28;20036;-83
2022/11/21 07:37:53;;;;;;;1.67;0.68;;;;;;;4.88;88.68;92884.94;5063159;28;20031;-83
2022/11/21 07:40:20;;;;;;;2.63;0.95;;;;;;;4.87;89.77;92885.28;5063206;28;20041;-82
2022/11/21 07:42:45;;;;;;;2.75;1.00;;;;;;;4.81;89.74;92897.81;5063218;28;20058;-82
2022/11/21 07:45:12;;;;;;;2.95;0.70;;;;;;;4.77;89.62;92886.28;5063114;28;20016;-80
2022/11/21 07:47:37;;;;;;;2.63;1.05;;;;;;;4.75;89.70;92883.16;5062868;28;20331;-75
2022/11/21 07:50:04;;;;;;;5.32;1.10;;;;;;;4.78;89.65;92886.00;5062221;28;20065;-77
2022/11/21 07:52:30;;;;;;;2.17;0.90;;;;;;;4.77;90.10;92894.19;5063133;28;20017;-77
2022/11/21 07:54:56;;;;;;;4.57;1.35;;;;;;;4.76;90.27;92906.63;5062936;28;20028;-78
2022/11/21 07:57:21;;;;;;;3.33;1.10;;;;;;;4.82;90.47;92891.44;5062817;28;20337;-78
2022/11/21 07:59:47;;;;;;;2.90;0.90;;;;;;;4.80;89.51;92899.66;5062829;28;20033;-84
2022/11/21 08:02:20;;;;;;;2.65;0.90;;;;;;;4.83;89.35;92928.09;5062567;28;20056;-79
2022/11/21 08:04:46;;;;;;;5.10;1.35;;;;;;;4.79;89.17;92931.63;5062800;28;20095;-80
2022/11/21 08:07:12;;;;;;;1.85;1.00;;;;;;;4.76;89.33;92917.19;5063066;28;20021;-79
2022/11/21 08:09:38;;;;;;;3.78;0.90;;;;;;;4.79;88.67;92927.13;5062707;28;20024;-79
2022/11/21 08:12:03;;;;;;;5.03;0.90;;;;;;;4.74;88.91;92910.63;5062577;28;20037;-78
2022/11/21 08:14:29;;;;;;;2.67;1.20;;;;;;;4.83;89.25;92938.66;5062686;28;20056;-78
2022/11/21 08:16:54;;;;;;;10.55;2.80;;;;;;;4.90;89.65;92930.31;5062394;28;20330;-78
2022/11/21 08:19:20;;;;;;;3.20;1.38;;;;;;;4.95;88.93;92948.69;5062731;28;20082;-78
2022/11/21 08:21:45;;;;;;;6.43;1.08;;;;;;;4.98;88.51;92953.38;5062527;28;20092;-78
2022/11/21 08:24:16;;;;;;;4.63;1.35;;;;;;;4.96;87.25;92944.97;5062596;28;20029;-79
2022/11/21 08:26:43;;;;;;;2.05;1.08;;;;;;;5.02;86.11;92948.25;5062422;28;20024;-79
2022/11/21 08:29:10;;;;;;;4.70;1.80;;;;;;;5.10;87.37;92957.34;5062751;28;20092;-79
2022/11/21 08:31:36;;;;;;;2.08;0.95;;;;;;;5.21;86.48;92966.56;5062591;28;20348;-72
2022/11/21 08:34:02;;;;;;;10.10;1.85;;;;;;;5.32;87.55;92965.25;5062294;28;20052;-72
2022/11/21 08:36:27;;;;;;;5.70;1.58;;;;;;;5.49;88.86;92971.72;5062342;28;20223;-74
2022/11/21 08:38:53;;;;;;;3.72;1.20;;;;;;;5.63;85.59;92972.41;5062340;28;20104;-75
2022/11/21 08:44:04;;;;;;;4.32;1.88;;;;;;;6.08;85.02;92966.25;5063536;28;20031;-77
2022/11/21 08:46:32;;;;;;;5.80;3.20;;;;;;;6.22;83.76;92956.34;5063565;28;20373;-82
2022/11/21 08:48:58;;;;;;;6.07;2.88;;;;;;;6.43;83.70;92957.34;5063839;28;20048;-81
2022/11/21 08:51:24;;;;;;;5.82;2.67;;;;;;;6.63;82.83;92960.47;5063206;28;20005;-83
2022/11/21 08:53:49;;;;;;;4.20;2.10;;;;;;;6.77;81.58;92963.00;5061524;28;20074;-85
2022/11/21 08:56:15;;;;;;;5.18;2.70;;;;;;;6.83;78.66;92959.88;5063296;28;20028;-82
2022/11/21 08:58:40;;;;;;;8.55;2.42;;;;;;;6.93;78.93;92964.09;5062110;28;20343;-80
2022/11/21 09:01:06;;;;;;;13.27;5.70;;;;;;;6.91;78.07;92966.25;5063434;28;20044;-84
2022/11/21 09:03:31;;;;;;;22.88;10.27;;;;;;;6.99;77.78;92965.50;5067101;28;20027;-84
2022/11/21 09:05:58;;;;;;;29.83;15.35;;;;;;;7.10;77.97;92967.81;5066192;28;20209;-81
2022/11/21 09:08:24;;;;;;;14.35;7.32;;;;;;;7.11;76.85;92970.16;5065655;28;20357;-83
2022/11/21 09:10:50;;;;;;;6.30;2.90;;;;;;;7.19;76.97;92972.03;5066169;28;20028;-82
2022/11/21 09:13:15;;;;;;;8.75;4.22;;;;;;;7.21;76.49;92972.50;5066398;28;20084;-81
2022/11/21 09:18:37;;;;;;;6.93;3.42;;;;;;;7.11;76.10;92987.94;5068158;28;20047;-93
2022/11/21 09:21:03;;;;;;;2.80;1.45;;;;;;;6.99;74.78;92975.31;5068924;28;20021;-81
2022/11/21 09:23:34;;;;;;;2.45;1.30;;;;;;;6.69;75.10;92980.41;5066764;28;20024;-91
2022/11/21 09:26:00;;;;;;;4.30;0.93;;;;;;;6.54;76.00;92979.00;5065875;28;20067;-81
2022/11/21 09:28:25;;;;;;;1.60;0.95;;;;;;;6.33;77.10;92973.50;5065672;28;20021;-82
2022/11/21 09:30:51;;;;;;;3.20;1.35;;;;;;;6.23;77.69;92979.88;5065960;28;20235;-88
2022/11/21 09:33:16;;;;;;;3.17;0.82;;;;;;;6.06;78.54;92987.72;5064276;28;20036;-81
2022/11/21 09:35:42;;;;;;;4.55;1.40;;;;;;;5.91;79.88;92983.59;5065828;28;20105;-82
2022/11/21 09:38:08;;;;;;;4.25;0.80;;;;;;;5.78;80.50;92989.75;5066516;28;20025;-84
2022/11/21 09:40:34;;;;;;;3.88;1.20;;;;;;;5.71;81.27;92997.34;5066078;28;20047;-87
2022/11/21 09:43:18;;;;;;;3.10;1.40;;;;;;;5.61;80.99;92995.72;5067399;28;20059;-81
2022/11/21 09:45:49;;;;;;;4.50;1.98;;;;;;;5.41;82.57;92989.88;5066052;28;20079;-84
2022/11/21 09:48:35;;;;;;;3.33;1.55;;;;;;;5.21;83.95;92982.41;5065509;28;20028;-82
2022/11/21 09:51:10;;;;;;;7.43;1.98;;;;;;;5.15;83.29;92989.69;5065850;28;20013;-82
2022/11/21 09:53:42;;;;;;;6.60;1.70;;;;;;;5.13;83.60;92985.78;5065144;28;20020;-85
2022/11/21 09:56:18;;;;;;;2.50;1.52;;;;;;;5.13;84.54;92999.00;5065456;28;20070;-80
2022/11/21 09:59:28;;;;;;;4.10;1.70;;;;;;;4.99;84.37;93010.41;5064745;28;20278;-82
2022/11/21 10:01:55;;;;;;;4.78;1.70;;;;;;;4.99;84.38;93017.53;5065580;28;20024;-79
2022/11/21 10:04:20;;;;;;;6.18;1.70;;;;;;;4.96;84.26;93029.47;5064810;28;20016;-82
2022/11/21 10:06:57;;;;;;;3.15;1.85;;;;;;;4.94;84.60;93010.50;5064803;28;20391;-82
2022/11/21 10:09:34;;;;;;;4.40;2.55;;;;;;;5.02;85.09;93007.16;5065005;28;20032;-86
2022/11/21 10:15:26;;;;;;;3.28;1.90;;;;;;;4.86;83.63;93021.75;5064574;28;20342;-83
2022/11/21 10:18:13;;;;;;;5.50;2.70;;;;;;;4.72;85.13;93013.91;5064565;28;20037;-86
2022/11/21 10:20:54;;;;;;;6.32;2.60;;;;;;;4.62;85.93;93022.03;5064803;28;20295;-79
2022/11/21 10:23:42;;;;;;;5.47;2.20;;;;;;;4.44;86.06;93031.63;5065193;28;20098;-93
2022/11/21 10:26:16;;;;;;;4.55;2.10;;;;;;;4.40;85.95;93028.78;5064389;28;20351;-81
2022/11/21 10:28:50;;;;;;;7.38;2.67;;;;;;;4.40;85.94;93028.00;5065314;28;20020;-76
2022/11/21 10:31:16;;;;;;;4.32;2.00;;;;;;;4.36;85.27;93041.00;5064732;28;20424;-83
2022/11/21 10:33:43;;;;;;;11.15;2.35;;;;;;;4.42;85.73;93049.59;5064775;28;20239;-80
2022/11/21 10:36:44;;;;;;;4.38;2.28;;;;;;;4.44;85.12;93042.19;5064463;28;20032;-80
2022/11/21 10:39:16;;;;;;;2.60;1.70;;;;;;;4.48;85.38;93029.97;5062989;28;20044;-89
2022/11/21 10:41:54;;;;;;;5.20;2.27;;;;;;;4.48;84.93;93029.16;5064163;28;20267;-78
2022/11/21 10:47:26;;;;;;;4.30;2.15;;;;;;;4.35;85.37;93041.28;5064312;28;20028;-78
2022/11/21 10:49:58;;;;;;;4.45;2.25;;;;;;;4.38;86.32;93035.44;5064113;28;20029;-84
2022/11/21 10:52:25;;;;;;;4.22;2.28;;;;;;;4.50;86.33;93038.38;5063987;28;20187;-82
2022/11/21 10:55:02;;;;;;;3.00;1.80;;;;;;;4.60;85.92;93030.25;5063893;28;20054;-80
2022/11/21 10:57:32;;;;;;;5.60;3.08;;;;;;;4.62;86.24;93041.28;5063779;28;20088;-82
2022/11/21 11:00:00;;;;;;;5.93;2.58;;;;;;;4.65;85.42;93044.41;5063918;28;20025;-80
2022/11/21 11:02:26;;;;;;;5.45;2.42;;;;;;;4.61;85.87;93041.56;5062814;28;20218;-86
2022/11/21 11:05:17;;;;;;;12.57;3.15;;;;;;;4.57;86.05;93053.78;5064117;28;20142;-87
2022/11/21 11:08:00;;;;;;;5.55;3.22;;;;;;;4.57;85.73;93044.00;5064065;28;20051;-83
2022/11/21 11:10:25;;;;;;;3.92;1.98;;;;;;;4.56;85.73;93050.38;5063556;28;20024;-85
2022/11/21 11:15:50;;;;;;;5.13;2.72;;;;;;;4.47;87.33;93044.22;5063466;28;20225;-83
2022/11/21 11:18:20;;;;;;;4.70;2.40;;;;;;;4.46;87.12;93024.19;5063329;28;20040;-84
2022/11/21 11:21:08;;;;;;;4.35;2.25;;;;;;;4.47;87.24;93022.34;5063524;28;20025;-86
2022/11/21 11:23:33;;;;;;;3.45;2.08;;;;;;;4.54;88.13;93028.78;5062731;28;20107;-81
2022/11/21 11:25:59;;;;;;;4.53;2.25;;;;;;;4.60;87.89;93017.03;5063783;28;20083;-82
2022/11/21 11:28:32;;;;;;;5.70;2.40;;;;;;;4.63;88.22;93021.72;5062963;28;20049;-83
2022/11/21 11:30:59;;;;;;;6.82;3.05;;;;;;;4.58;87.13;93028.94;5062541;28;20029;-83
2022/11/21 11:33:32;;;;;;;7.03;3.08;;;;;;;4.57;86.58;93022.91;5063126;28;20338;-82
2022/11/21 11:36:11;;;;;;;6.35;2.80;;;;;;;4.58;86.11;93035.03;5063310;28;20024;-78
2022/11/21 11:38:37;;;;;;;13.95;3.72;;;;;;;4.58;86.25;93027.13;5062977;28;20204;-82
2022/11/21 11:41:16;;;;;;;6.95;3.28;;;;;;;4.58;86.01;93032.38;5062881;28;20578;-79
2022/11/21 11:50:12;;;;;;;6.68;3.42;;;;;;;4.55;86.72;93029.56;5063023;28;20396;-81
2022/11/21 11:52:55;;;;;;;10.75;3.67;;;;;;;4.56;86.33;93029.28;5062928;28;20025;-81
2022/11/21 11:55:31;;;;;;;9.20;3.75;;;;;;;4.57;86.18;93022.13;5063071;28;20535;-81
2022/11/21 11:58:00;;;;;;;9.75;3.30;;;;;;;4.55;87.13;93032.97;5062768;28;20060;-79
2022/11/21 12:00:28;;;;;;;6.53;3.20;;;;;;;4.58;87.13;93024.47;5062968;28;20043;-82
2022/11/21 12:02:53;;;;;;;8.52;2.92;;;;;;;4.67;86.73;93021.91;5062890;28;20035;-83
2022/11/21 12:05:27;;;;;;;6.78;3.30;;;;;;;4.71;84.39;93030.03;5062893;28;20025;-81
2022/11/21 12:08:07;;;;;;;7.85;3.47;;;;;;;4.81;85.00;93032.44;5062869;28;20017;-81